Portada
METAR-TAF:

METAR-TAF

Aeroports :

York Airport

York, Pennsilvània, Estats Units d'Amèrica

latitud: 39-55-10N, longitud: 076-52-37W, altitud: 146 m

Observació

L'informe es va fer fa 24 minuts, a les 11:53 UTC
Vent calma
Temperatura 16°C
Humitat 88%
Pressió 1024 hPa
Visibilitat: 0.4 km
boira

METAR: KTHV 221153Z AUTO 00000KT 1/4SM FG VV002 16/14 A3023 RMK AO2 SLP237 T01560144 10156 20122 51008

Hora: 08:17 (12:17 UTC)


TAF: manca

Observacions i pronòstics meteorològics de més de 4000 aeroports (METAR i TAF).

Les estacions disponibles són els punts grocs i vermells al mapa.

Posi el ratolí al punt desitjat per veure el nom de l'estació.

Feu clic per veure les observacions i els pronòstics meteorològics.

Per canviar el mapa: feu clic els botons verds amb una creu de color negre per apropar; al botó verd amb un guió per allunyar la imatge; o en les fletxes verdes per a mapes adjacents.


METAR-TAF: